Time;durP1;ratioP1;P1;durP2;ratioP2;P2;SDS_P1;SDS_P2;PMS_P1;PMS_P2;Temp;Humidity;BMP_temperature;BMP_pressure;BME280_temperature;BME280_humidity;BME280_pressure;Samples;Min_cycle;Max_cycle;Signal;HPM_P1;HPM_P2
2021/07/30 00:01:58;;;;;;;17.63;6.70;;;;;;;17.45;83.76;100915.28;5050792;28;20048;-49
2021/07/30 00:04:26;;;;;;;16.52;6.03;;;;;;;17.45;84.08;100920.94;5050727;28;20057;-53
2021/07/30 00:06:54;;;;;;;17.70;6.55;;;;;;;17.45;84.00;100915.28;5051129;28;20391;-56
2021/07/30 00:09:22;;;;;;;15.27;5.85;;;;;;;17.45;83.96;100915.28;5050969;28;20169;-57
2021/07/30 00:11:50;;;;;;;23.58;6.28;;;;;;;17.45;83.94;100918.94;5050456;28;20048;-53
2021/07/30 00:14:19;;;;;;;14.25;6.32;;;;;;;17.46;84.23;100919.75;5050927;28;20045;-49
2021/07/30 00:16:47;;;;;;;18.20;6.38;;;;;;;17.44;84.48;100908.81;5050748;28;20064;-50
2021/07/30 00:19:15;;;;;;;17.35;6.38;;;;;;;17.42;84.52;100911.16;5050102;28;20069;-55
2021/07/30 00:21:42;;;;;;;16.98;6.60;;;;;;;17.42;84.52;100904.69;5049893;28;20619;-55
2021/07/30 00:24:10;;;;;;;21.35;6.60;;;;;;;17.40;85.23;100902.22;5050802;28;20106;-53
2021/07/30 00:26:38;;;;;;;16.88;6.55;;;;;;;17.42;85.05;100901.88;5050149;28;20140;-58
2021/07/30 00:29:06;;;;;;;17.67;7.10;;;;;;;17.39;85.20;100899.72;5050487;28;20490;-54
2021/07/30 00:31:35;;;;;;;21.77;6.68;;;;;;;17.39;85.08;100905.38;5050791;28;20102;-55
2021/07/30 00:34:03;;;;;;;16.17;7.15;;;;;;;17.38;85.22;100892.47;5043484;28;20069;-54
2021/07/30 00:36:31;;;;;;;14.13;5.50;;;;;;;17.38;84.81;100898.94;5050583;28;20075;-51
2021/07/30 00:38:58;;;;;;;16.35;6.68;;;;;;;17.37;84.82;100894.47;5050598;28;20083;-53
2021/07/30 00:41:26;;;;;;;19.15;6.43;;;;;;;17.36;84.72;100900.44;5050034;28;20075;-50
2021/07/30 00:43:54;;;;;;;16.20;6.15;;;;;;;17.34;85.02;100900.78;5050507;28;20040;-51
2021/07/30 00:46:25;;;;;;;16.65;6.32;;;;;;;17.34;85.17;100897.13;5049977;28;20048;-53
2021/07/30 00:48:54;;;;;;;21.95;6.15;;;;;;;17.32;85.17;100891.84;5050751;28;20041;-58
2021/07/30 00:51:22;;;;;;;15.20;6.65;;;;;;;17.33;85.15;100901.13;5049343;28;20398;-50
2021/07/30 00:53:51;;;;;;;14.48;5.50;;;;;;;17.33;84.91;100901.97;5049797;28;20065;-50
2021/07/30 00:56:18;;;;;;;13.05;5.53;;;;;;;17.32;84.97;100894.66;5050304;28;20045;-57
2021/07/30 00:58:48;;;;;;;18.65;6.07;;;;;;;17.32;84.97;100893.84;5050565;28;20091;-55
2021/07/30 01:01:16;;;;;;;13.70;5.47;;;;;;;17.31;85.13;100897.81;5049912;28;20049;-50
2021/07/30 01:03:45;;;;;;;15.43;6.28;;;;;;;17.29;85.22;100895.34;5050656;28;20068;-54
2021/07/30 01:06:14;;;;;;;17.50;6.25;;;;;;;17.30;85.23;100896.16;5050468;28;20041;-53
2021/07/30 01:08:42;;;;;;;20.00;6.72;;;;;;;17.29;85.23;100889.69;5049642;28;20084;-51
2021/07/30 01:11:10;;;;;;;16.02;6.55;;;;;;;17.30;85.19;100896.16;5049182;28;20044;-49
2021/07/30 01:13:38;;;;;;;18.05;6.70;;;;;;;17.31;85.13;100897.81;5050734;28;20099;-49
2021/07/30 01:16:06;;;;;;;15.15;6.00;;;;;;;17.31;85.27;100893.00;5049737;28;20517;-51
2021/07/30 01:18:34;;;;;;;19.60;6.60;;;;;;;17.29;85.17;100889.69;5050126;28;20487;-49
2021/07/30 01:21:08;;;;;;;20.52;6.40;;;;;;;17.27;85.24;100886.41;5050304;28;20103;-49
2021/07/30 01:23:38;;;;;;;15.95;6.55;;;;;;;17.27;85.31;100886.41;5049340;28;20413;-51
2021/07/30 01:26:05;;;;;;;18.15;6.43;;;;;;;17.28;85.54;100892.88;5050447;28;20045;-50
2021/07/30 01:28:33;;;;;;;19.42;6.53;;;;;;;17.26;85.64;100890.38;5049377;28;20501;-50
2021/07/30 01:31:02;;;;;;;16.92;6.13;;;;;;;17.27;85.49;100891.22;5050227;28;20072;-50
2021/07/30 01:33:30;;;;;;;19.05;6.05;;;;;;;17.28;85.31;100890.03;5050052;28;20559;-53
2021/07/30 01:35:58;;;;;;;22.08;6.45;;;;;;;17.28;85.44;100888.06;5051022;28;20103;-52
2021/07/30 01:38:26;;;;;;;14.80;5.97;;;;;;;17.28;85.19;100887.22;5053874;28;20045;-51
2021/07/30 01:41:08;;;;;;;18.42;6.55;;;;;;;17.27;85.24;100888.41;5053790;28;20080;-52
2021/07/30 01:43:37;;;;;;;17.15;5.88;;;;;;;17.23;85.50;100893.88;5042416;28;20449;-52
2021/07/30 01:46:05;;;;;;;17.92;6.30;;;;;;;17.22;85.31;100884.59;5050910;28;20044;-54
2021/07/30 01:48:33;;;;;;;17.30;5.70;;;;;;;17.20;85.03;100886.09;5053456;28;20041;-52
2021/07/30 01:51:01;;;;;;;15.52;6.10;;;;;;;17.21;84.92;100880.13;5052947;28;20044;-54
2021/07/30 01:53:29;;;;;;;15.07;5.90;;;;;;;17.21;84.92;100882.94;5053591;28;20136;-52
2021/07/30 01:56:03;;;;;;;15.23;5.20;;;;;;;17.21;84.96;100882.13;5053340;28;20052;-55
2021/07/30 01:58:33;;;;;;;14.60;6.05;;;;;;;17.22;85.10;100876.13;5052616;28;20041;-53
2021/07/30 02:01:01;;;;;;;14.80;5.70;;;;;;;17.24;85.09;100875.81;5053312;28;20049;-54
2021/07/30 02:03:29;;;;;;;15.70;5.55;;;;;;;17.24;85.07;100881.44;5042434;28;20063;-54
2021/07/30 02:05:57;;;;;;;16.17;6.10;;;;;;;17.23;85.09;100880.63;5052856;28;20098;-52
2021/07/30 02:08:25;;;;;;;15.32;5.70;;;;;;;17.22;85.08;100878.97;5051614;28;20048;-50
2021/07/30 02:10:53;;;;;;;14.93;6.05;;;;;;;17.20;85.38;100878.47;5052612;28;20053;-54
2021/07/30 02:16:13;;;;;;;14.40;6.00;;;;;;;17.17;85.85;100881.19;5032536;28;20155;-53
2021/07/30 02:18:41;;;;;;;13.55;5.50;;;;;;;17.19;85.52;100876.81;5052278;28;20142;-57
2021/07/30 02:21:09;;;;;;;21.17;6.03;;;;;;;17.18;85.69;100868.72;5052996;28;20056;-56
2021/07/30 02:23:37;;;;;;;16.50;7.18;;;;;;;17.18;85.80;100871.56;5052728;28;20056;-51
2021/07/30 02:26:05;;;;;;;18.60;5.88;;;;;;;17.18;85.70;100868.72;5052467;28;20486;-49
2021/07/30 02:28:34;;;;;;;19.90;6.28;;;;;;;17.16;86.02;100873.88;5052325;28;20060;-49
2021/07/30 02:31:02;;;;;;;18.98;7.03;;;;;;;17.16;86.03;100868.25;5051851;28;20075;-52
2021/07/30 02:33:30;;;;;;;17.48;6.60;;;;;;;17.14;85.91;100865.78;5052167;28;20475;-55
2021/07/30 02:35:58;;;;;;;16.33;5.82;;;;;;;17.16;85.83;100865.44;5052588;28;20079;-54
2021/07/30 02:38:25;;;;;;;15.70;5.35;;;;;;;17.16;86.22;100862.63;5052423;28;20131;-53
2021/07/30 02:40:53;;;;;;;18.73;6.28;;;;;;;17.14;86.22;100864.94;5052030;28;20453;-54
2021/07/30 02:43:21;;;;;;;16.35;6.03;;;;;;;17.14;86.29;100859.31;5052587;28;20401;-58
2021/07/30 02:45:50;;;;;;;15.25;5.78;;;;;;;17.10;86.46;100859.16;5052368;28;20052;-54
2021/07/30 02:48:18;;;;;;;14.95;6.00;;;;;;;17.09;86.51;100865.13;5051264;28;20439;-49
2021/07/30 02:50:48;;;;;;;18.60;6.20;;;;;;;17.09;86.58;100867.97;5052267;28;20099;-55
2021/07/30 02:53:15;;;;;;;15.02;5.47;;;;;;;17.08;86.51;100867.13;5052034;28;20126;-55
2021/07/30 02:55:45;;;;;;;20.55;5.75;;;;;;;17.09;86.77;100871.59;5052467;28;20121;-50
2021/07/30 02:58:13;;;;;;;18.95;5.85;;;;;;;17.10;86.80;100863.97;5052290;28;20405;-57
2021/07/30 03:00:41;;;;;;;17.83;5.82;;;;;;;17.09;87.01;100867.97;5051609;28;20449;-50
2021/07/30 03:03:11;;;;;;;14.63;5.75;;;;;;;17.08;86.93;100861.50;5052102;28;20076;-51
2021/07/30 03:05:39;;;;;;;14.15;5.43;;;;;;;17.07;86.85;100859.00;5051904;28;20049;-53
2021/07/30 03:08:07;;;;;;;14.23;5.15;;;;;;;17.08;87.10;100857.84;5051542;28;20049;-58
2021/07/30 03:10:35;;;;;;;19.45;5.75;;;;;;;17.08;87.13;100857.84;5052212;28;20037;-52
2021/07/30 03:13:03;;;;;;;13.70;5.13;;;;;;;17.07;87.25;100850.56;5051835;28;20053;-48
2021/07/30 03:15:31;;;;;;;15.77;5.53;;;;;;;17.05;87.11;100856.53;5050053;28;20557;-50
2021/07/30 03:17:59;;;;;;;20.48;6.35;;;;;;;17.03;87.05;100849.59;5052339;28;20114;-49
2021/07/30 03:20:28;;;;;;;18.08;5.07;;;;;;;17.04;87.52;100854.06;5051589;28;20041;-56
2021/07/30 03:22:56;;;;;;;14.45;5.25;;;;;;;17.03;87.63;100847.59;5051573;28;20045;-51
2021/07/30 03:25:23;;;;;;;17.02;5.07;;;;;;;17.06;87.51;100851.72;5051673;28;20568;-47
2021/07/30 03:27:51;;;;;;;14.73;5.40;;;;;;;17.03;87.29;100849.59;5051390;28;20138;-50
2021/07/30 03:30:19;;;;;;;14.18;5.20;;;;;;;17.03;87.30;100844.78;5051146;28;20382;-50
2021/07/30 03:32:47;;;;;;;19.23;6.20;;;;;;;17.01;87.63;100837.81;5049913;28;20140;-48
2021/07/30 03:35:15;;;;;;;18.05;5.32;;;;;;;17.01;87.93;100843.47;5049784;28;20466;-50
2021/07/30 03:37:46;;;;;;;21.23;5.70;;;;;;;16.98;88.34;100841.34;5051347;28;20112;-49
2021/07/30 03:40:14;;;;;;;18.45;5.75;;;;;;;16.98;88.58;100832.91;5044436;28;20045;-51
2021/07/30 03:42:42;;;;;;;18.15;5.45;;;;;;;16.97;88.40;100840.53;5050480;28;20045;-49
2021/07/30 03:45:10;;;;;;;14.60;5.47;;;;;;;16.96;88.49;100836.06;5051114;28;20037;-52
2021/07/30 03:47:38;;;;;;;18.08;5.25;;;;;;;16.95;88.67;100839.22;5051188;28;20198;-57
2021/07/30 03:50:07;;;;;;;18.45;5.72;;;;;;;16.96;88.68;100840.88;5050571;28;20037;-50
2021/07/30 03:52:35;;;;;;;14.80;5.05;;;;;;;16.95;88.80;100836.41;5050582;28;20124;-50
2021/07/30 03:55:05;;;;;;;16.67;5.60;;;;;;;16.96;88.71;100854.97;5050766;28;20062;-51
2021/07/30 03:57:33;;;;;;;17.45;4.80;;;;;;;16.97;88.78;100848.16;5050040;28;20057;-50
2021/07/30 04:00:01;;;;;;;16.38;5.53;;;;;;;16.96;88.88;100844.50;5049637;28;20077;-55
2021/07/30 04:02:33;;;;;;;17.10;5.25;;;;;;;16.96;88.94;100841.69;5040798;28;20429;-49
2021/07/30 04:05:02;;;;;;;17.35;6.13;;;;;;;16.98;89.09;100838.53;5050501;28;20053;-50
2021/07/30 04:07:30;;;;;;;16.20;5.53;;;;;;;16.96;89.21;100843.69;5050937;28;20136;-53
2021/07/30 04:09:58;;;;;;;13.95;5.43;;;;;;;16.99;89.01;100840.16;5050695;28;20552;-48
2021/07/30 04:12:27;;;;;;;18.80;5.30;;;;;;;16.98;89.13;100835.72;5050273;28;20048;-50
2021/07/30 04:14:55;;;;;;;17.50;5.13;;;;;;;16.98;89.40;100835.72;5051117;28;20045;-56
2021/07/30 04:17:23;;;;;;;17.15;5.03;;;;;;;16.97;89.62;100840.53;5050079;28;20508;-51
2021/07/30 04:19:51;;;;;;;17.52;4.90;;;;;;;16.99;89.51;100831.69;5051012;28;20045;-50
2021/07/30 04:22:18;;;;;;;18.55;5.45;;;;;;;17.00;89.55;100825.72;5050511;28;20107;-49
2021/07/30 04:24:46;;;;;;;19.17;5.32;;;;;;;17.01;89.70;100827.38;5050506;28;20052;-56
2021/07/30 04:27:18;;;;;;;15.35;5.45;;;;;;;17.04;89.60;100831.50;5050676;28;20060;-56
2021/07/30 04:29:47;;;;;;;16.20;4.88;;;;;;;17.07;89.70;100830.81;5050741;28;20045;-52
2021/07/30 04:32:15;;;;;;;13.90;4.90;;;;;;;17.08;89.66;100830.47;5050193;28;20414;-55
2021/07/30 04:34:43;;;;;;;16.77;4.88;;;;;;;17.13;89.71;100829.47;5050596;28;20057;-55
2021/07/30 04:37:10;;;;;;;14.45;5.03;;;;;;;17.16;89.60;100825.94;5051207;28;20066;-53
2021/07/30 04:39:38;;;;;;;18.05;4.90;;;;;;;17.20;89.37;100821.25;5049981;28;20554;-56
2021/07/30 04:42:06;;;;;;;12.73;4.63;;;;;;;17.21;89.26;100820.06;5050727;28;20091;-57
2021/07/30 04:44:35;;;;;;;16.90;4.95;;;;;;;17.23;89.27;100817.75;5050588;28;20049;-50
2021/07/30 04:47:05;;;;;;;17.55;5.50;;;;;;;17.24;89.38;100825.03;5049773;28;20045;-48
2021/07/30 04:49:33;;;;;;;10.85;4.15;;;;;;;17.25;89.28;100821.03;5050442;28;20421;-59
2021/07/30 04:52:01;;;;;;;15.35;5.07;;;;;;;17.28;89.33;100826.00;5050602;28;20170;-49
2021/07/30 04:54:28;;;;;;;13.75;4.65;;;;;;;17.31;89.28;100825.31;5050219;28;20049;-51
2021/07/30 04:56:56;;;;;;;14.95;5.80;;;;;;;17.33;89.13;100827.78;5050376;28;20037;-53
2021/07/30 04:59:24;;;;;;;17.60;5.40;;;;;;;17.36;89.07;100836.41;5050568;28;20056;-50
2021/07/30 05:01:52;;;;;;;14.50;4.63;;;;;;;17.35;88.96;100829.09;5050612;28;20045;-54
2021/07/30 05:04:26;;;;;;;15.95;5.10;;;;;;;17.36;88.84;100836.41;5050780;28;20119;-55
2021/07/30 05:06:54;;;;;;;16.08;4.85;;;;;;;17.38;88.70;100834.06;5049933;28;20379;-52
2021/07/30 05:09:22;;;;;;;15.60;5.38;;;;;;;17.41;88.58;100844.63;5050481;28;20091;-53
2021/07/30 05:11:50;;;;;;;20.40;5.30;;;;;;;17.42;88.41;100829.34;5053035;28;20513;-55
2021/07/30 05:14:18;;;;;;;15.32;5.00;;;;;;;17.41;88.37;100827.69;5052749;28;20052;-51
2021/07/30 05:16:46;;;;;;;17.83;4.70;;;;;;;17.45;88.26;100828.66;5054518;28;20061;-50
2021/07/30 05:19:14;;;;;;;16.20;4.40;;;;;;;17.46;88.46;100830.31;5054048;28;20130;-52
2021/07/30 05:21:43;;;;;;;17.08;4.60;;;;;;;17.49;88.29;100826.81;5052446;28;20041;-52
2021/07/30 05:24:11;;;;;;;16.95;5.18;;;;;;;17.51;88.37;100829.28;5054140;28;20044;-53
2021/07/30 05:26:39;;;;;;;12.10;4.68;;;;;;;17.53;88.32;100826.94;5053699;28;20049;-55
2021/07/30 05:29:08;;;;;;;15.13;4.70;;;;;;;17.54;87.88;100834.22;5053196;28;20064;-53
2021/07/30 05:31:36;;;;;;;14.90;5.35;;;;;;;17.53;88.02;100833.41;5053875;28;20049;-57
2021/07/30 05:34:04;;;;;;;14.70;5.20;;;;;;;17.55;88.06;100842.34;5053800;28;20049;-53
2021/07/30 05:36:32;;;;;;;14.13;5.03;;;;;;;17.53;87.70;100829.75;5053133;28;20559;-52
2021/07/30 05:39:01;;;;;;;13.63;4.95;;;;;;;17.55;87.66;100825.41;5049033;28;20049;-50
2021/07/30 05:41:29;;;;;;;15.15;4.47;;;;;;;17.58;87.41;100821.09;5048556;28;20045;-51
2021/07/30 05:43:57;;;;;;;14.77;5.20;;;;;;;17.60;87.23;100821.53;5053033;28;20072;-51
2021/07/30 05:46:24;;;;;;;12.93;4.57;;;;;;;17.67;87.21;100821.00;5053203;28;20060;-51
2021/07/30 05:48:56;;;;;;;15.07;4.82;;;;;;;17.72;86.99;100812.34;5053046;28;20037;-50
2021/07/30 05:51:24;;;;;;;16.10;5.05;;;;;;;17.75;86.46;100814.47;5053394;28;20119;-53
2021/07/30 05:53:52;;;;;;;14.45;5.60;;;;;;;17.82;86.50;100814.69;5053592;28;20106;-51
2021/07/30 05:56:21;;;;;;;16.30;5.05;;;;;;;17.91;86.45;100821.09;5051120;28;20047;-49
2021/07/30 05:58:49;;;;;;;14.93;4.50;;;;;;;18.00;86.19;100815.31;5052311;28;20056;-55
2021/07/30 06:01:17;;;;;;;14.10;5.07;;;;;;;18.06;85.95;100819.56;5044047;28;20442;-56
2021/07/30 06:03:50;;;;;;;12.30;4.75;;;;;;;18.08;85.41;100820.88;5052261;28;20091;-53
2021/07/30 06:06:34;;;;;;;14.57;5.10;;;;;;;18.11;85.12;100825.00;5053333;28;20114;-56
2021/07/30 06:09:14;;;;;;;14.95;4.57;;;;;;;18.08;84.71;100820.88;5043591;28;20037;-53
2021/07/30 06:11:49;;;;;;;18.05;5.35;;;;;;;18.08;84.53;100820.03;5053029;28;20120;-54
2021/07/30 06:14:24;;;;;;;15.18;4.72;;;;;;;18.08;84.11;100826.53;5053462;28;20044;-51
2021/07/30 06:17:10;;;;;;;14.00;4.90;;;;;;;18.08;84.08;100823.69;5052197;28;20029;-54
2021/07/30 06:19:42;;;;;;;15.15;4.40;;;;;;;18.12;84.39;100824.66;5053094;28;20047;-51
2021/07/30 06:22:26;;;;;;;12.43;5.45;;;;;;;18.15;84.03;100821.13;5052616;28;20067;-51
2021/07/30 06:25:15;;;;;;;15.07;5.60;;;;;;;18.13;84.02;100817.00;5051468;28;20040;-50
2021/07/30 06:28:29;;;;;;;12.57;5.43;;;;;;;18.02;84.47;100810.16;5052059;28;20485;-50
2021/07/30 06:31:08;;;;;;;13.10;4.93;;;;;;;17.92;84.74;100819.91;5046074;28;20033;-49
2021/07/30 06:33:48;;;;;;;13.27;5.10;;;;;;;17.83;84.84;100813.53;5052798;28;20583;-48
2021/07/30 06:36:29;;;;;;;13.93;5.20;;;;;;;17.76;85.14;100813.28;5053262;28;20045;-53
2021/07/30 06:39:30;;;;;;;11.18;5.10;;;;;;;17.68;85.76;100812.19;5050768;28;20041;-56
2021/07/30 06:42:26;;;;;;;17.23;6.00;;;;;;;17.63;86.05;100812.38;5036734;28;20049;-56
2021/07/30 06:45:11;;;;;;;10.55;4.25;;;;;;;17.62;86.44;100813.53;5052511;28;20037;-51
2021/07/30 06:47:51;;;;;;;14.73;5.03;;;;;;;17.63;86.77;100814.38;5046820;28;20072;-51
2021/07/30 06:50:21;;;;;;;14.07;5.05;;;;;;;17.64;86.56;100813.22;5041029;28;20037;-55
2021/07/30 06:52:49;;;;;;;16.08;5.25;;;;;;;17.62;87.08;100807.91;5051665;28;20037;-52
2021/07/30 06:55:22;;;;;;;15.05;6.00;;;;;;;17.64;87.25;100805.59;5052435;28;20041;-50
2021/07/30 06:57:56;;;;;;;13.80;5.70;;;;;;;17.65;86.90;100804.44;5051765;28;20132;-50
2021/07/30 07:00:28;;;;;;;18.47;6.00;;;;;;;17.66;86.94;100808.06;5051944;28;20037;-55
2021/07/30 07:02:59;;;;;;;14.73;5.22;;;;;;;17.67;87.18;100804.91;5051315;28;20073;-51
2021/07/30 07:05:30;;;;;;;14.63;4.78;;;;;;;17.70;87.43;100806.22;5052613;28;20465;-58
2021/07/30 07:07:59;;;;;;;11.63;4.95;;;;;;;17.73;87.42;100809.16;5051402;28;20103;-49
2021/07/30 07:10:31;;;;;;;11.70;4.75;;;;;;;17.82;87.41;100806.22;5048427;28;20049;-49
2021/07/30 07:13:03;;;;;;;11.55;4.80;;;;;;;17.90;87.06;100800.50;5051531;28;20053;-53
2021/07/30 07:15:32;;;;;;;13.80;5.10;;;;;;;17.97;87.38;100791.47;5050555;28;20484;-51
2021/07/30 07:18:00;;;;;;;14.95;5.28;;;;;;;18.04;86.82;100797.31;5051813;28;20099;-49
2021/07/30 07:20:28;;;;;;;15.02;5.38;;;;;;;18.07;86.91;100802.28;5051195;28;20049;-55
2021/07/30 07:22:56;;;;;;;17.58;5.38;;;;;;;18.13;86.57;100798.06;5051664;28;20048;-51
2021/07/30 07:25:24;;;;;;;15.95;5.38;;;;;;;18.20;86.56;100801.09;5051440;28;20154;-55
2021/07/30 07:27:52;;;;;;;9.85;4.18;;;;;;;18.29;86.33;100805.81;5050736;28;20486;-55
2021/07/30 07:30:20;;;;;;;12.10;4.78;;;;;;;18.34;86.19;100816.91;5051102;28;20075;-54
2021/07/30 07:32:49;;;;;;;12.35;5.00;;;;;;;18.38;85.91;100798.91;5051286;28;20144;-56
2021/07/30 07:35:17;;;;;;;16.38;5.00;;;;;;;18.46;85.96;100791.47;5050763;28;20083;-48
2021/07/30 07:37:45;;;;;;;16.50;5.70;;;;;;;18.52;85.63;100805.00;5051373;28;20041;-52
2021/07/30 07:40:13;;;;;;;17.17;5.78;;;;;;;18.52;85.52;100796.53;5051123;28;20126;-49
2021/07/30 07:42:41;;;;;;;19.10;5.93;;;;;;;18.56;85.04;100791.00;5050637;28;20098;-55
2021/07/30 07:45:10;;;;;;;18.70;5.40;;;;;;;18.61;84.71;100793.59;5046532;28;20049;-56
2021/07/30 07:47:38;;;;;;;14.18;6.05;;;;;;;18.67;84.60;100786.53;5044467;28;20099;-56
2021/07/30 07:50:08;;;;;;;12.73;4.68;;;;;;;18.81;84.54;100792.63;5050529;28;20095;-56
2021/07/30 07:52:36;;;;;;;15.98;5.07;;;;;;;18.92;84.02;100792.97;5051187;28;20145;-57
2021/07/30 07:55:08;;;;;;;12.98;4.60;;;;;;;19.05;83.14;100785.25;5050453;28;20143;-51
2021/07/30 07:57:36;;;;;;;12.75;4.53;;;;;;;19.13;82.76;100781.47;5048868;28;20410;-57
2021/07/30 08:00:05;;;;;;;13.77;4.60;;;;;;;19.18;82.56;100789.72;5050579;28;20053;-52
2021/07/30 08:02:38;;;;;;;10.90;4.47;;;;;;;19.22;82.09;100782.94;5039244;28;20086;-49
2021/07/30 08:05:10;;;;;;;15.55;5.25;;;;;;;19.24;81.60;100779.75;5046083;28;20421;-53
2021/07/30 08:07:38;;;;;;;11.68;4.43;;;;;;;19.28;81.11;100778.69;5051103;28;20052;-54
2021/07/30 08:10:08;;;;;;;14.48;4.75;;;;;;;19.31;80.40;100777.16;5050216;28;20048;-55
2021/07/30 08:12:36;;;;;;;10.23;4.30;;;;;;;19.37;80.62;100789.03;5048018;28;20122;-48
2021/07/30 08:15:06;;;;;;;10.02;3.97;;;;;;;19.39;79.69;100784.63;5050080;28;20126;-54
2021/07/30 08:17:35;;;;;;;11.18;4.50;;;;;;;19.41;79.44;100768.13;5049373;28;20049;-54
2021/07/30 08:20:03;;;;;;;15.13;4.95;;;;;;;19.51;78.06;100766.81;5050258;28;20067;-60
2021/07/30 08:22:33;;;;;;;11.82;4.15;;;;;;;19.65;77.50;100757.91;5050703;28;20073;-58
2021/07/30 08:25:02;;;;;;;13.00;4.15;;;;;;;19.78;77.03;100756.66;5050141;28;20072;-56
2021/07/30 08:27:30;;;;;;;10.75;3.88;;;;;;;19.90;76.49;100762.22;5050298;28;20057;-57
2021/07/30 08:29:57;;;;;;;10.80;4.00;;;;;;;20.01;74.73;100765.31;5050572;28;20057;-56
2021/07/30 08:32:25;;;;;;;9.60;3.72;;;;;;;20.07;73.50;100763.88;5048696;28;20045;-55
2021/07/30 08:34:53;;;;;;;12.68;4.03;;;;;;;20.09;72.90;100750.16;5050827;28;20441;-54
2021/07/30 08:37:21;;;;;;;8.70;3.72;;;;;;;20.17;72.45;100758.47;5050388;28;20045;-54
2021/07/30 08:39:50;;;;;;;11.13;3.83;;;;;;;20.17;70.98;100758.47;5049873;28;20048;-56
2021/07/30 08:42:19;;;;;;;8.68;3.45;;;;;;;20.15;70.42;100760.84;5050194;28;20541;-55
2021/07/30 08:44:47;;;;;;;8.23;3.90;;;;;;;20.09;71.05;100755.81;5051031;28;20053;-55
2021/07/30 08:47:20;;;;;;;11.07;4.05;;;;;;;20.03;71.71;100755.28;5054470;28;20045;-56
2021/07/30 08:49:48;;;;;;;11.40;4.38;;;;;;;19.91;70.97;100756.19;5054446;28;20041;-53
2021/07/30 08:52:18;;;;;;;9.05;4.03;;;;;;;19.84;71.00;100752.34;5054139;28;20508;-52
2021/07/30 08:54:53;;;;;;;9.35;3.90;;;;;;;19.72;71.82;100755.25;5054848;28;20067;-55
2021/07/30 08:57:21;;;;;;;10.82;4.60;;;;;;;19.70;73.42;100749.13;5043823;28;20049;-55
2021/07/30 08:59:49;;;;;;;11.50;4.30;;;;;;;19.74;74.36;100741.56;5053595;28;20072;-54
2021/07/30 09:02:18;;;;;;;9.98;4.50;;;;;;;19.82;74.15;100740.56;5054082;28;20053;-56
2021/07/30 09:04:47;;;;;;;9.85;4.30;;;;;;;19.86;73.53;100742.28;5054269;28;20140;-54
2021/07/30 09:07:15;;;;;;;13.25;5.40;;;;;;;19.92;72.54;100746.50;5053713;28;20083;-55
2021/07/30 09:09:54;;;;;;;10.57;4.50;;;;;;;19.94;71.84;100734.81;5054043;28;20143;-55
2021/07/30 09:12:23;;;;;;;10.40;4.30;;;;;;;20.02;71.98;100739.47;5050738;28;20088;-52
2021/07/30 09:14:51;;;;;;;11.50;4.22;;;;;;;20.10;70.20;100734.81;5053602;28;20044;-54
2021/07/30 09:17:19;;;;;;;9.57;3.97;;;;;;;20.20;70.69;100735.06;5053570;28;20080;-55
2021/07/30 09:20:00;;;;;;;7.75;3.65;;;;;;;20.32;69.17;100733.31;5049881;28;20486;-56
2021/07/30 09:22:28;;;;;;;8.75;4.32;;;;;;;20.39;68.28;100727.81;5053697;28;20088;-56
2021/07/30 09:24:59;;;;;;;7.68;4.03;;;;;;;20.49;67.46;100719.59;5050692;28;20045;-53
2021/07/30 09:27:33;;;;;;;11.93;4.00;;;;;;;20.65;66.49;100722.38;5052795;28;20111;-53
2021/07/30 09:30:15;;;;;;;9.00;3.47;;;;;;;20.95;64.86;100720.63;5051757;28;20125;-56
2021/07/30 09:32:42;;;;;;;7.43;3.10;;;;;;;21.23;64.13;100723.25;5053298;28;20079;-52
2021/07/30 09:35:11;;;;;;;8.40;3.20;;;;;;;21.43;62.26;100714.69;5053162;28;20056;-54
2021/07/30 09:37:39;;;;;;;6.85;3.00;;;;;;;21.56;61.68;100705.66;5053772;28;20049;-54
2021/07/30 09:40:20;;;;;;;6.05;2.80;;;;;;;21.69;60.12;100711.13;5053569;28;20441;-57
2021/07/30 09:42:47;;;;;;;8.65;3.17;;;;;;;21.80;59.92;100706.44;5053048;28;20052;-54
2021/07/30 09:45:15;;;;;;;8.68;2.80;;;;;;;21.81;58.66;100700.41;5053015;28;20059;-55
2021/07/30 09:47:48;;;;;;;11.00;3.00;;;;;;;21.78;57.96;100697.50;5053481;28;20474;-54
2021/07/30 09:50:15;;;;;;;6.65;2.80;;;;;;;21.84;57.85;100696.81;5053216;28;20136;-55
2021/07/30 09:52:50;;;;;;;8.93;2.90;;;;;;;21.91;57.80;100696.09;5053575;28;20444;-57
2021/07/30 09:55:21;;;;;;;8.65;2.70;;;;;;;22.06;57.48;100682.97;5052789;28;20048;-52
2021/07/30 09:57:52;;;;;;;9.43;3.15;;;;;;;22.28;54.62;100682.94;5045629;28;20049;-53
2021/07/30 10:00:20;;;;;;;7.88;2.90;;;;;;;22.32;54.97;100675.28;5053098;28;20107;-55
2021/07/30 10:02:49;;;;;;;7.75;2.90;;;;;;;22.43;55.68;100672.59;5052548;28;20466;-56
2021/07/30 10:05:20;;;;;;;10.55;3.05;;;;;;;22.51;56.22;100677.19;5052940;28;20076;-57
2021/07/30 10:07:48;;;;;;;9.23;2.92;;;;;;;22.54;54.87;100679.25;5053246;28;20466;-59
2021/07/30 10:10:19;;;;;;;6.18;2.45;;;;;;;22.53;54.61;100668.28;5051009;28;20136;-53
2021/07/30 10:12:50;;;;;;;8.73;2.78;;;;;;;22.44;54.47;100665.69;5053337;28;20047;-53
2021/07/30 10:15:19;;;;;;;8.02;2.80;;;;;;;22.28;53.93;100668.72;5052770;28;20071;-53
2021/07/30 10:17:48;;;;;;;7.25;2.22;;;;;;;22.15;53.48;100657.97;5052251;28;20627;-54
2021/07/30 10:20:18;;;;;;;8.93;2.97;;;;;;;22.09;53.66;100651.78;5052829;28;20048;-57
2021/07/30 10:22:51;;;;;;;6.85;2.20;;;;;;;22.01;53.77;100647.19;5052760;28;20057;-56
2021/07/30 10:25:22;;;;;;;8.80;2.90;;;;;;;21.98;54.11;100642.25;5042057;28;20140;-55
2021/07/30 10:27:56;;;;;;;8.73;2.53;;;;;;;21.94;54.27;100639.34;5052589;28;20095;-56
2021/07/30 10:30:24;;;;;;;6.65;2.60;;;;;;;21.98;54.71;100628.03;5040962;28;20457;-58
2021/07/30 10:32:54;;;;;;;8.13;2.42;;;;;;;22.10;54.59;100632.72;5052850;28;20072;-59
2021/07/30 10:35:43;;;;;;;6.22;2.42;;;;;;;22.07;51.45;100624.94;5052180;28;20052;-55
2021/07/30 10:38:16;;;;;;;7.60;2.30;;;;;;;22.05;52.96;100628.16;5044273;28;20053;-56
2021/07/30 10:40:46;;;;;;;6.60;2.38;;;;;;;21.99;54.04;100629.66;5041606;28;20045;-54
2021/07/30 10:43:16;;;;;;;6.95;2.60;;;;;;;21.93;54.47;100634.03;5052188;28;20122;-56
2021/07/30 10:46:08;;;;;;;6.68;2.63;;;;;;;21.83;54.49;100635.50;5051694;28;20083;-49
2021/07/30 10:48:36;;;;;;;7.22;2.88;;;;;;;21.63;56.45;100631.91;5052430;28;20051;-56
2021/07/30 10:51:22;;;;;;;6.18;2.65;;;;;;;21.56;58.49;100628.16;5041203;28;20800;-56
2021/07/30 10:53:52;;;;;;;7.07;2.90;;;;;;;21.44;59.41;100642.53;5052323;28;20048;-55
2021/07/30 10:56:50;;;;;;;10.38;2.95;;;;;;;21.33;60.44;100639.50;5052081;28;20067;-55
2021/07/30 10:59:23;;;;;;;6.45;3.00;;;;;;;21.15;61.17;100652.50;5051410;28;20174;-56
2021/07/30 11:02:09;;;;;;;7.78;3.50;;;;;;;20.96;62.57;100640.00;5052164;28;20045;-53
2021/07/30 11:04:57;;;;;;;7.97;3.40;;;;;;;20.81;63.17;100626.69;5052009;28;20425;-53
2021/07/30 11:07:33;;;;;;;7.22;3.47;;;;;;;20.87;63.07;100615.88;5051373;28;20045;-51
2021/07/30 11:10:14;;;;;;;8.77;3.58;;;;;;;21.06;63.85;100620.72;5051379;28;20045;-54
2021/07/30 11:12:42;;;;;;;8.18;3.33;;;;;;;21.33;63.31;100613.13;5050889;28;20102;-52
2021/07/30 11:15:13;;;;;;;6.15;3.40;;;;;;;21.59;62.44;100613.19;5051718;28;20048;-53
2021/07/30 11:17:41;;;;;;;8.90;3.28;;;;;;;21.71;61.47;100603.66;5051742;28;20059;-55
2021/07/30 11:20:10;;;;;;;6.57;3.60;;;;;;;21.79;60.62;100599.69;5051214;28;20029;-51
2021/07/30 11:22:38;;;;;;;8.38;3.97;;;;;;;21.76;59.69;100600.50;5051263;28;20076;-51
2021/07/30 11:25:12;;;;;;;8.15;3.45;;;;;;;21.80;59.80;100592.81;5051426;28;20041;-53
2021/07/30 11:27:40;;;;;;;9.18;3.60;;;;;;;21.90;59.79;100600.72;5050228;28;20185;-53
2021/07/30 11:30:17;;;;;;;9.40;3.35;;;;;;;22.03;59.62;100602.16;5159582;27;20391;-54
2021/07/30 11:32:45;;;;;;;7.10;3.63;;;;;;;22.15;58.97;100601.13;5156604;27;20406;-50
2021/07/30 11:35:12;;;;;;;9.02;3.55;;;;;;;22.25;58.32;100584.19;5161274;27;20042;-57
2021/07/30 11:37:40;;;;;;;7.45;3.50;;;;;;;22.33;58.12;100583.09;5155662;27;20042;-54